createdAt,value
2023-03-29T00:04:16.053Z,99644.58
2023-03-29T00:09:20.174Z,99646.21
2023-03-29T00:14:23.504Z,99648.43
2023-03-29T00:19:27.154Z,99650.95
2023-03-29T00:24:30.984Z,99649.66
2023-03-29T00:29:34.507Z,99654.10
2023-03-29T00:34:37.921Z,99660.19
2023-03-29T00:39:42.337Z,99656.91
2023-03-29T00:45:04.173Z,99659.66
2023-03-29T00:50:14.610Z,99662.39
2023-03-29T00:55:23.062Z,99662.30
2023-03-29T01:00:35.653Z,99663.25
2023-03-29T01:05:43.335Z,99656.83
2023-03-29T01:10:55.414Z,99650.71
2023-03-29T01:16:00.229Z,99646.69
2023-03-29T01:21:25.519Z,99648.13
2023-03-29T01:26:35.114Z,99645.89
2023-03-29T01:31:42.246Z,99644.95
2023-03-29T01:37:02.396Z,99640.02
2023-03-29T01:42:21.232Z,99634.73
2023-03-29T01:47:32.729Z,99637.14
2023-03-29T01:52:43.441Z,99640.19
2023-03-29T01:57:49.014Z,99633.98
2023-03-29T02:03:00.557Z,99638.98
2023-03-29T02:08:06.208Z,99646.34
2023-03-29T02:13:09.444Z,99647.35
2023-03-29T02:18:16.726Z,99647.63
2023-03-29T02:23:41.265Z,99641.76
2023-03-29T02:28:44.836Z,99638.22
2023-03-29T02:34:00.886Z,99633.48
2023-03-29T02:39:06.129Z,99641.21
2023-03-29T02:44:14.242Z,99639.78
2023-03-29T02:49:18.287Z,99640.52
2023-03-29T02:54:30.023Z,99642.21
2023-03-29T02:59:34.825Z,99644.46
2023-03-29T03:04:38.461Z,99646.88
2023-03-29T03:09:42.084Z,99642.39
2023-03-29T03:14:46.068Z,99641.39
2023-03-29T03:19:49.774Z,99645.65
2023-03-29T03:24:53.852Z,99650.43
2023-03-29T03:29:58.321Z,99652.63
2023-03-29T03:35:22.936Z,99650.61
2023-03-29T03:40:27.865Z,99657.45
2023-03-29T03:45:31.868Z,99655.70
2023-03-29T03:50:59.305Z,99655.70
2023-03-29T03:56:09.287Z,99648.55
2023-03-29T04:01:24.776Z,99655.46
2023-03-29T04:06:35.437Z,99660.95
2023-03-29T04:12:02.051Z,99663.10
2023-03-29T04:17:06.220Z,99658.81
2023-03-29T04:22:25.965Z,99659.45
2023-03-29T04:27:30.154Z,99661.58
2023-03-29T04:32:34.395Z,99661.05
2023-03-29T04:37:42.489Z,99658.79
2023-03-29T04:42:47.593Z,99661.23
2023-03-29T04:47:51.123Z,99656.11
2023-03-29T04:52:55.869Z,99654.08
2023-03-29T05:04:59.544Z,99655.61
2023-03-29T05:10:04.730Z,99656.34
2023-03-29T05:15:09.774Z,99650.85
2023-03-29T05:20:14.017Z,99651.73
2023-03-29T05:25:19.794Z,99655.57
2023-03-29T05:30:23.866Z,99652.79
2023-03-29T05:35:36.141Z,99655.06
2023-03-29T05:48:27.418Z,99659.80
2023-03-29T05:53:41.447Z,99656.89
2023-03-29T06:04:15.768Z,99653.98
2023-03-29T06:09:41.508Z,99651.37
2023-03-29T06:20:15.917Z,99657.48
2023-03-29T06:25:46.843Z,99658.44
2023-03-29T06:30:56.790Z,99652.36
2023-03-29T06:36:03.850Z,99657.13
2023-03-29T06:46:47.610Z,99659.36
2023-03-29T06:51:51.481Z,99666.11
2023-03-29T06:56:55.240Z,99664.11
2023-03-29T07:01:59.843Z,99667.38
2023-03-29T07:07:27.595Z,99663.13
2023-03-29T07:12:43.533Z,99662.09
2023-03-29T07:17:51.517Z,99660.67
2023-03-29T07:22:57.515Z,99664.80
2023-03-29T07:28:16.572Z,99661.41
2023-03-29T07:50:16.357Z,99659.36
2023-03-29T07:57:04.297Z,99661.21
2023-03-29T08:03:19.582Z,99660.49
2023-03-29T08:53:41.601Z,99622.33
2023-03-29T08:58:59.835Z,99621.33
2023-03-29T09:43:36.637Z,99586.48
2023-03-29T09:49:16.076Z,99581.27
2023-03-29T09:55:23.876Z,99571.77
2023-03-29T10:01:09.904Z,99565.33
2023-03-29T10:06:58.244Z,99559.94
2023-03-29T10:31:14.539Z,99543.95
2023-03-29T10:42:58.726Z,99535.94
2023-03-29T10:48:30.829Z,99534.36
2023-03-29T10:54:09.110Z,99525.23
2023-03-29T11:00:10.542Z,99521.30
2023-03-29T11:05:34.870Z,99513.20
2023-03-29T11:11:11.714Z,99507.85
2023-03-29T11:22:56.271Z,99497.52
2023-03-29T11:29:35.245Z,99489.78
2023-03-29T11:35:45.002Z,99484.95
2023-03-29T11:47:11.012Z,99468.89
2023-03-29T11:52:22.756Z,99462.33
2023-03-29T11:57:31.158Z,99449.52
2023-03-29T12:02:48.022Z,99453.02
2023-03-29T12:08:06.663Z,99440.61
2023-03-29T12:13:21.172Z,99435.88
2023-03-29T12:18:41.319Z,99434.97
2023-03-29T12:23:46.050Z,99427.61
2023-03-29T12:29:21.651Z,99422.25
2023-03-29T12:34:40.814Z,99411.22
2023-03-29T12:42:54.494Z,99399.71
2023-03-29T12:48:22.952Z,99400.34
2023-03-29T12:53:45.841Z,99398.48
2023-03-29T12:59:11.178Z,99387.48
2023-03-29T14:05:38.860Z,99304.61
2023-03-29T14:10:44.983Z,99301.59
2023-03-29T14:15:54.423Z,99302.13
2023-03-29T14:21:01.283Z,99298.95
2023-03-29T14:26:14.482Z,99298.73
2023-03-29T14:31:38.886Z,99298.80
2023-03-29T14:36:46.196Z,99296.17
2023-03-29T14:41:52.244Z,99295.14
2023-03-29T14:46:56.616Z,99298.41
2023-03-29T14:52:00.670Z,99298.50
2023-03-29T14:57:08.435Z,99294.10
2023-03-29T15:02:32.494Z,99297.76
2023-03-29T15:07:40.163Z,99295.05
2023-03-29T15:12:44.003Z,99288.23
2023-03-29T15:17:52.282Z,99285.20
2023-03-29T15:23:04.685Z,99287.62
2023-03-29T15:28:27.211Z,99282.45
2023-03-29T15:33:36.807Z,99284.64
2023-03-29T15:38:45.151Z,99279.47
2023-03-29T15:43:48.937Z,99276.34
2023-03-29T15:48:52.652Z,99271.64
2023-03-29T15:53:56.431Z,99269.54
2023-03-29T15:59:02.020Z,99262.52
2023-03-29T16:04:06.993Z,99260.39
2023-03-29T16:09:12.213Z,99268.64
2023-03-29T16:14:23.159Z,99268.98
2023-03-29T16:19:28.532Z,99266.95
2023-03-29T16:24:33.336Z,99264.29
2023-03-29T16:29:36.894Z,99261.27
2023-03-29T16:34:41.588Z,99257.02
2023-03-29T16:39:46.563Z,99261.76
2023-03-29T16:44:49.976Z,99263.33
2023-03-29T16:49:53.685Z,99254.21
2023-03-29T16:54:57.032Z,99253.02
2023-03-29T17:00:00.470Z,99249.14
2023-03-29T17:05:04.573Z,99248.94
2023-03-29T17:10:09.483Z,99249.86
2023-03-29T17:15:12.895Z,99250.64
2023-03-29T17:20:17.399Z,99248.80
2023-03-29T17:25:23.899Z,99249.15
2023-03-29T17:30:27.931Z,99249.70
2023-03-29T17:35:31.728Z,99255.47
2023-03-29T17:40:38.370Z,99263.95
2023-03-29T17:45:41.693Z,99269.34
2023-03-29T17:50:45.161Z,99267.98
2023-03-29T17:55:48.757Z,99266.92
2023-03-29T18:00:52.126Z,99265.98
2023-03-29T18:05:56.772Z,99263.69
2023-03-29T18:11:14.164Z,99269.58
2023-03-29T18:16:17.972Z,99277.26
2023-03-29T18:21:22.277Z,99281.29
2023-03-29T18:26:26.023Z,99283.59
2023-03-29T18:31:29.471Z,99281.34
2023-03-29T18:36:32.871Z,99283.30
2023-03-29T18:41:37.521Z,99290.14
2023-03-29T18:46:41.203Z,99290.45
2023-03-29T18:51:46.453Z,99292.98
2023-03-29T18:56:49.950Z,99282.67
2023-03-29T19:01:53.621Z,99280.45
2023-03-29T19:06:56.899Z,99278.39
2023-03-29T19:12:00.502Z,99272.11
2023-03-29T19:17:03.992Z,99279.74
2023-03-29T19:22:07.721Z,99282.67
2023-03-29T19:27:12.593Z,99282.34
2023-03-29T19:32:16.388Z,99280.11
2023-03-29T19:37:20.413Z,99279.92
2023-03-29T19:42:24.176Z,99275.70
2023-03-29T19:47:28.442Z,99269.23
2023-03-29T19:52:32.010Z,99268.45
2023-03-29T19:57:35.425Z,99266.70
2023-03-29T20:02:39.168Z,99271.01
2023-03-29T20:07:43.057Z,99275.05
2023-03-29T20:12:48.074Z,99276.31
2023-03-29T20:17:54.492Z,99285.52
2023-03-29T20:29:24.321Z,99283.95
2023-03-29T20:34:28.054Z,99282.56
2023-03-29T20:39:31.661Z,99271.16
2023-03-29T20:44:35.471Z,99263.48
2023-03-29T20:49:38.835Z,99261.30
2023-03-29T20:54:44.354Z,99255.75
2023-03-29T20:59:49.425Z,99253.34
2023-03-29T21:04:54.075Z,99255.78
2023-03-29T21:09:57.485Z,99250.64
2023-03-29T21:15:02.744Z,99241.93
2023-03-29T21:20:13.125Z,99234.64
2023-03-29T21:25:16.869Z,99227.55
2023-03-29T21:30:20.261Z,99224.39
2023-03-29T21:35:24.255Z,99226.44
2023-03-29T21:40:27.743Z,99228.73
2023-03-29T21:45:31.215Z,99231.25
2023-03-29T21:50:34.792Z,99230.41
2023-03-29T21:55:38.360Z,99236.98
2023-03-29T22:00:41.806Z,99236.05
2023-03-29T22:05:56.621Z,99229.87
2023-03-29T22:11:08.260Z,99225.50
2023-03-29T22:16:18.819Z,99227.67
2023-03-29T22:21:25.399Z,99228.39
2023-03-29T22:26:31.069Z,99231.48
2023-03-29T22:31:34.317Z,99238.21
2023-03-29T22:36:37.604Z,99232.70
2023-03-29T22:41:42.040Z,99232.74
2023-03-29T22:46:45.769Z,99234.84
2023-03-29T22:51:49.298Z,99236.65
2023-03-29T22:57:01.128Z,99228.87
2023-03-29T23:02:07.868Z,99225.65
2023-03-29T23:07:13.462Z,99219.09
2023-03-29T23:12:17.316Z,99207.12
2023-03-29T23:17:21.014Z,99200.17
2023-03-29T23:22:24.672Z,99195.48
2023-03-29T23:27:28.567Z,99195.52
2023-03-29T23:32:31.989Z,99198.11
2023-03-29T23:37:35.638Z,99196.04
2023-03-29T23:42:40.938Z,99188.31
2023-03-29T23:47:45.762Z,99181.67
2023-03-29T23:52:49.701Z,99172.85
2023-03-29T23:57:53.045Z,99165.20
